createdAt,value
2023-02-23T00:01:21.975Z,2.75
2023-02-23T00:03:50.339Z,2.92
2023-02-23T00:06:19.308Z,2.72
2023-02-23T00:08:48.869Z,2.75
2023-02-23T00:11:18.763Z,2.28
2023-02-23T00:13:50.014Z,1.77
2023-02-23T00:16:19.200Z,2.88
2023-02-23T00:18:50.614Z,2.72
2023-02-23T00:21:20.741Z,1.70
2023-02-23T00:23:50.266Z,1.80
2023-02-23T00:26:20.889Z,2.88
2023-02-23T00:28:49.504Z,2.17
2023-02-23T00:31:18.186Z,3.22
2023-02-23T00:33:46.605Z,2.80
2023-02-23T00:36:15.732Z,3.30
2023-02-23T00:38:45.950Z,2.83
2023-02-23T00:41:17.697Z,2.22
2023-02-23T00:43:49.594Z,2.38
2023-02-23T00:46:18.804Z,2.88
2023-02-23T00:48:47.634Z,2.25
2023-02-23T00:51:16.331Z,2.38
2023-02-23T00:53:44.987Z,2.67
2023-02-23T00:56:14.011Z,2.35
2023-02-23T00:58:42.327Z,2.70
2023-02-23T01:01:12.665Z,3.05
2023-02-23T01:03:42.215Z,4.45
2023-02-23T01:06:11.704Z,2.22
2023-02-23T01:08:42.679Z,2.78
2023-02-23T01:11:11.770Z,2.45
2023-02-23T01:13:40.752Z,2.72
2023-02-23T01:16:09.508Z,2.67
2023-02-23T01:18:40.003Z,2.15
2023-02-23T01:21:15.621Z,3.53
2023-02-23T01:23:43.912Z,2.83
2023-02-23T01:26:17.016Z,2.05
2023-02-23T01:28:45.308Z,2.47
2023-02-23T01:31:13.685Z,2.92
2023-02-23T01:33:43.534Z,2.80
2023-02-23T01:36:12.922Z,2.85
2023-02-23T01:38:41.261Z,2.20
2023-02-23T01:41:09.721Z,2.40
2023-02-23T01:43:38.107Z,2.60
2023-02-23T01:46:06.496Z,3.33
2023-02-23T01:48:37.014Z,2.33
2023-02-23T01:51:08.135Z,2.53
2023-02-23T01:53:38.126Z,2.70
2023-02-23T01:56:11.354Z,2.50
2023-02-23T01:58:41.056Z,2.20
2023-02-23T02:01:09.360Z,2.58
2023-02-23T02:03:40.060Z,2.08
2023-02-23T02:06:10.974Z,2.35
2023-02-23T02:08:44.618Z,2.42
2023-02-23T02:11:26.049Z,3.33
2023-02-23T02:13:55.236Z,3.35
2023-02-23T02:16:42.457Z,2.65
2023-02-23T02:19:20.242Z,3.28
2023-02-23T02:22:04.783Z,3.53
2023-02-23T02:24:48.557Z,3.08
2023-02-23T02:27:23.112Z,2.78
2023-02-23T02:30:13.009Z,2.55
2023-02-23T02:33:01.902Z,2.15
2023-02-23T02:35:38.004Z,2.80
2023-02-23T02:38:11.503Z,4.25
2023-02-23T02:40:53.163Z,3.13
2023-02-23T02:43:25.756Z,3.58
2023-02-23T02:45:56.955Z,2.20
2023-02-23T02:48:31.076Z,2.95
2023-02-23T02:51:02.054Z,3.35
2023-02-23T02:53:38.664Z,3.25
2023-02-23T02:56:08.424Z,3.28
2023-02-23T02:58:36.723Z,2.95
2023-02-23T03:01:26.371Z,2.67
2023-02-23T03:04:12.345Z,2.67
2023-02-23T03:07:03.078Z,2.70
2023-02-23T03:09:53.586Z,4.00
2023-02-23T03:12:46.103Z,2.53
2023-02-23T03:15:37.854Z,2.95
2023-02-23T03:18:28.741Z,3.25
2023-02-23T03:21:15.858Z,2.63
2023-02-23T03:24:07.716Z,3.35
2023-02-23T03:26:57.357Z,3.45
2023-02-23T03:29:50.253Z,2.45
2023-02-23T03:32:38.435Z,2.33
2023-02-23T03:35:27.484Z,2.40
2023-02-23T03:38:16.261Z,3.55
2023-02-23T03:41:03.093Z,2.65
2023-02-23T03:43:54.433Z,3.35
2023-02-23T03:46:41.244Z,2.72
2023-02-23T03:49:29.007Z,2.90
2023-02-23T03:52:17.830Z,3.50
2023-02-23T03:55:06.731Z,2.35
2023-02-23T03:57:55.081Z,3.38
2023-02-23T04:00:48.747Z,2.28
2023-02-23T04:03:35.952Z,2.60
2023-02-23T04:06:23.078Z,4.20
2023-02-23T04:09:10.300Z,2.70
2023-02-23T04:12:00.187Z,2.65
2023-02-23T04:14:30.188Z,3.83
2023-02-23T04:16:59.080Z,2.58
2023-02-23T04:19:28.720Z,2.85
2023-02-23T04:21:57.068Z,2.30
2023-02-23T04:24:25.308Z,2.67
2023-02-23T04:26:53.541Z,2.70
2023-02-23T04:29:21.805Z,3.15
2023-02-23T04:31:50.080Z,2.80
2023-02-23T04:34:19.756Z,2.92
2023-02-23T04:36:47.954Z,2.60
2023-02-23T04:39:16.166Z,2.25
2023-02-23T04:41:44.626Z,2.78
2023-02-23T04:44:13.231Z,2.78
2023-02-23T04:46:41.440Z,2.70
2023-02-23T04:49:09.692Z,3.65
2023-02-23T04:51:39.357Z,3.70
2023-02-23T04:54:07.664Z,3.67
2023-02-23T04:56:35.895Z,3.60
2023-02-23T04:59:04.132Z,3.42
2023-02-23T05:01:32.901Z,3.42
2023-02-23T05:04:01.285Z,2.53
2023-02-23T05:06:29.566Z,2.17
2023-02-23T05:08:59.155Z,2.30
2023-02-23T05:11:27.840Z,4.03
2023-02-23T05:13:56.167Z,3.08
2023-02-23T05:16:24.481Z,4.35
2023-02-23T05:18:52.724Z,2.55
2023-02-23T05:21:21.323Z,3.88
2023-02-23T05:23:49.680Z,3.67
2023-02-23T05:26:19.340Z,3.08
2023-02-23T05:28:47.584Z,2.47
2023-02-23T05:31:16.120Z,3.30
2023-02-23T05:33:45.669Z,3.17
2023-02-23T05:36:16.621Z,2.80
2023-02-23T05:38:45.681Z,3.40
2023-02-23T05:41:14.861Z,3.60
2023-02-23T05:43:44.597Z,3.03
2023-02-23T05:46:14.113Z,3.42
2023-02-23T05:48:42.699Z,2.95
2023-02-23T05:51:11.709Z,3.10
2023-02-23T05:53:40.265Z,2.30
2023-02-23T05:56:09.701Z,3.65
2023-02-23T05:58:37.960Z,2.92
2023-02-23T06:01:07.662Z,3.08
2023-02-23T06:03:35.958Z,2.90
2023-02-23T06:06:04.170Z,2.38
2023-02-23T06:08:32.704Z,2.08
2023-02-23T06:11:00.947Z,2.83
2023-02-23T06:13:29.577Z,2.47
2023-02-23T06:15:57.908Z,2.70
2023-02-23T06:18:27.766Z,2.78
2023-02-23T06:20:56.041Z,3.67
2023-02-23T06:23:24.320Z,1.60
2023-02-23T06:25:52.551Z,3.17
2023-02-23T06:28:20.813Z,3.50
2023-02-23T06:30:49.234Z,2.30
2023-02-23T06:33:17.514Z,3.67
2023-02-23T06:35:47.157Z,3.13
2023-02-23T06:38:15.398Z,3.90
2023-02-23T06:40:44.171Z,2.55
2023-02-23T06:43:12.426Z,2.70
2023-02-23T06:45:40.962Z,3.45
2023-02-23T06:48:09.593Z,2.33
2023-02-23T06:50:38.074Z,3.50
2023-02-23T06:53:07.757Z,3.05
2023-02-23T06:55:36.323Z,3.08
2023-02-23T06:58:04.940Z,3.75
2023-02-23T07:00:33.190Z,3.53
2023-02-23T07:03:01.460Z,3.22
2023-02-23T07:05:30.780Z,3.10
2023-02-23T07:07:59.057Z,3.20
2023-02-23T07:10:28.925Z,2.55
2023-02-23T07:12:57.206Z,3.15
2023-02-23T07:15:25.621Z,4.13
2023-02-23T07:17:54.116Z,2.88
2023-02-23T07:20:22.421Z,2.22
2023-02-23T07:22:50.924Z,2.72
2023-02-23T07:25:19.542Z,3.50
2023-02-23T07:27:49.235Z,3.55
2023-02-23T07:30:18.174Z,1.80
2023-02-23T07:32:46.519Z,2.22
2023-02-23T07:35:14.829Z,2.75
2023-02-23T07:37:43.222Z,2.65
2023-02-23T07:40:12.663Z,3.30
2023-02-23T07:42:41.015Z,3.38
2023-02-23T07:45:11.425Z,2.90
2023-02-23T07:47:39.896Z,3.38
2023-02-23T07:50:09.834Z,2.72
2023-02-23T07:52:38.636Z,2.63
2023-02-23T07:55:07.602Z,2.97
2023-02-23T07:57:36.397Z,2.72
2023-02-23T08:00:05.495Z,3.30
2023-02-23T08:02:35.149Z,2.80
2023-02-23T08:05:03.466Z,4.53
2023-02-23T08:07:33.542Z,2.53
2023-02-23T08:10:01.950Z,3.47
2023-02-23T08:12:30.272Z,3.85
2023-02-23T08:14:58.545Z,2.88
2023-02-23T08:17:27.530Z,2.58
2023-02-23T08:19:57.231Z,2.25
2023-02-23T08:22:25.494Z,2.72
2023-02-23T08:24:53.749Z,3.78
2023-02-23T08:27:22.219Z,2.63
2023-02-23T08:29:52.552Z,2.72
2023-02-23T08:32:21.251Z,2.72
2023-02-23T08:34:49.639Z,2.55
2023-02-23T08:37:19.347Z,3.17
2023-02-23T08:39:47.909Z,5.22
2023-02-23T08:42:16.312Z,2.95
2023-02-23T08:44:44.902Z,3.17
2023-02-23T08:47:13.215Z,2.45
2023-02-23T08:49:41.640Z,2.55
2023-02-23T08:52:10.043Z,3.63
2023-02-23T08:54:39.973Z,2.75
2023-02-23T08:57:08.359Z,3.28
2023-02-23T08:59:37.686Z,3.10
2023-02-23T09:02:07.714Z,2.50
2023-02-23T09:04:37.494Z,3.80
2023-02-23T09:07:06.513Z,3.17
2023-02-23T09:09:35.209Z,3.30
2023-02-23T09:12:05.176Z,2.15
2023-02-23T09:14:33.498Z,2.25
2023-02-23T09:17:01.910Z,3.22
2023-02-23T09:19:30.272Z,1.88
2023-02-23T09:21:58.694Z,2.35
2023-02-23T09:24:26.997Z,2.35
2023-02-23T09:26:55.341Z,1.73
2023-02-23T09:29:24.971Z,2.75
2023-02-23T09:31:53.565Z,2.03
2023-02-23T09:34:21.947Z,1.65
2023-02-23T09:36:51.376Z,2.35
2023-02-23T09:39:29.055Z,2.10
2023-02-23T09:42:15.643Z,2.00
2023-02-23T09:44:53.394Z,2.58
2023-02-23T09:47:29.520Z,2.28
2023-02-23T09:49:59.901Z,1.90
2023-02-23T09:52:30.111Z,1.63
2023-02-23T09:54:59.900Z,2.45
2023-02-23T09:57:31.512Z,2.47
2023-02-23T10:00:01.323Z,1.98
2023-02-23T10:02:34.528Z,2.30
2023-02-23T10:05:04.185Z,1.90
2023-02-23T10:07:38.711Z,2.33
2023-02-23T10:10:15.077Z,2.15
2023-02-23T10:12:49.198Z,2.03
2023-02-23T10:15:25.264Z,1.53
2023-02-23T10:17:57.237Z,2.03
2023-02-23T10:20:29.413Z,2.20
2023-02-23T10:22:59.318Z,1.83
2023-02-23T10:25:29.030Z,1.95
2023-02-23T10:27:58.457Z,1.58
2023-02-23T10:30:29.116Z,2.25
2023-02-23T10:33:01.236Z,1.48
2023-02-23T10:35:31.001Z,2.03
2023-02-23T10:38:00.091Z,1.38
2023-02-23T10:40:29.509Z,2.20
2023-02-23T10:42:58.818Z,1.85
2023-02-23T10:45:29.754Z,1.63
2023-02-23T10:48:00.173Z,2.20
2023-02-23T10:50:29.323Z,1.33
2023-02-23T10:53:00.628Z,1.80
2023-02-23T10:55:30.415Z,2.42
2023-02-23T10:58:08.698Z,1.45
2023-02-23T11:00:40.047Z,1.50
2023-02-23T11:03:20.081Z,1.25
2023-02-23T11:05:50.744Z,0.85
2023-02-23T11:08:21.322Z,1.60
2023-02-23T11:11:13.496Z,1.63
2023-02-23T11:13:42.500Z,1.90
2023-02-23T11:16:14.184Z,1.08
2023-02-23T11:18:43.330Z,1.45
2023-02-23T11:21:15.581Z,1.23
2023-02-23T11:23:44.213Z,1.63
2023-02-23T11:26:28.508Z,2.00
2023-02-23T11:28:58.285Z,1.38
2023-02-23T11:31:32.580Z,0.88
2023-02-23T11:34:01.175Z,1.65
2023-02-23T11:36:30.777Z,1.75
2023-02-23T11:39:03.511Z,1.52
2023-02-23T11:41:32.873Z,1.48
2023-02-23T11:44:04.932Z,1.60
2023-02-23T11:46:38.211Z,1.13
2023-02-23T11:49:07.565Z,1.48
2023-02-23T11:51:38.027Z,1.10
2023-02-23T11:54:07.598Z,1.25
2023-02-23T11:56:36.696Z,1.52
2023-02-23T11:59:07.398Z,1.33
2023-02-23T12:01:48.268Z,1.98
2023-02-23T12:04:30.394Z,1.25
2023-02-23T12:07:19.886Z,1.60
2023-02-23T12:09:49.126Z,1.08
2023-02-23T12:12:19.783Z,1.73
2023-02-23T12:14:51.933Z,1.25
2023-02-23T12:17:23.278Z,1.33
2023-02-23T12:19:56.965Z,1.50
2023-02-23T12:22:29.444Z,1.10
2023-02-23T12:25:01.382Z,1.25
2023-02-23T12:27:33.162Z,1.95
2023-02-23T12:30:08.454Z,1.20
2023-02-23T12:32:45.590Z,1.02
2023-02-23T12:35:16.750Z,1.40
2023-02-23T12:37:46.866Z,1.55
2023-02-23T12:40:19.058Z,0.85
2023-02-23T12:42:51.144Z,1.85
2023-02-23T12:45:25.410Z,0.77
2023-02-23T12:47:57.158Z,0.82
2023-02-23T12:50:29.045Z,1.00
2023-02-23T12:52:59.661Z,0.98
2023-02-23T12:55:32.778Z,1.95
2023-02-23T12:58:06.071Z,0.60
2023-02-23T13:00:39.352Z,1.05
2023-02-23T13:03:31.761Z,1.70
2023-02-23T13:06:04.176Z,1.67
2023-02-23T13:08:41.771Z,1.13
2023-02-23T13:11:17.103Z,1.58
2023-02-23T13:13:49.224Z,0.82
2023-02-23T13:16:21.455Z,0.82
2023-02-23T13:18:52.292Z,0.90
2023-02-23T13:21:26.340Z,0.70
2023-02-23T13:24:01.022Z,0.90
2023-02-23T13:26:32.514Z,0.70
2023-02-23T13:29:03.819Z,1.17
2023-02-23T13:31:35.054Z,2.08
2023-02-23T13:34:04.596Z,1.27
2023-02-23T13:36:36.262Z,0.52
2023-02-23T13:39:19.063Z,0.77
2023-02-23T13:41:52.131Z,0.52
2023-02-23T13:44:22.582Z,1.00
2023-02-23T13:46:52.736Z,1.08
2023-02-23T13:49:28.512Z,0.63
2023-02-23T13:51:59.110Z,0.52
2023-02-23T13:54:32.471Z,0.65
2023-02-23T13:57:02.378Z,1.10
2023-02-23T13:59:33.274Z,0.80
2023-02-23T14:02:03.708Z,1.05
2023-02-23T14:04:37.134Z,0.38
2023-02-23T14:07:15.294Z,0.52
2023-02-23T14:09:46.502Z,0.55
2023-02-23T14:12:20.690Z,0.60
2023-02-23T14:14:49.098Z,0.98
2023-02-23T14:17:50.709Z,1.15
2023-02-23T14:20:37.577Z,0.68
2023-02-23T14:23:32.727Z,0.60
2023-02-23T14:26:19.403Z,0.70
2023-02-23T14:28:50.434Z,0.45
2023-02-23T14:31:22.187Z,0.63
2023-02-23T14:33:53.308Z,0.50
2023-02-23T14:36:35.409Z,0.35
2023-02-23T14:39:04.943Z,0.70
2023-02-23T14:41:37.861Z,0.60
2023-02-23T14:44:17.167Z,0.93
2023-02-23T14:46:56.962Z,0.50
2023-02-23T14:49:27.851Z,0.63
2023-02-23T14:51:56.870Z,0.55
2023-02-23T14:54:26.684Z,0.50
2023-02-23T14:56:58.332Z,0.50
2023-02-23T14:59:28.119Z,1.02
2023-02-23T15:01:57.264Z,0.40
2023-02-23T15:04:27.280Z,0.57
2023-02-23T15:06:57.282Z,0.55
2023-02-23T15:09:32.090Z,0.40
2023-02-23T15:12:05.013Z,0.30
2023-02-23T15:14:34.911Z,0.82
2023-02-23T15:17:03.885Z,0.63
2023-02-23T15:19:33.474Z,0.50
2023-02-23T15:22:03.574Z,0.88
2023-02-23T15:24:34.490Z,1.50
2023-02-23T15:27:05.004Z,0.60
2023-02-23T15:29:34.504Z,0.75
2023-02-23T15:32:15.261Z,0.52
2023-02-23T15:34:43.899Z,0.63
2023-02-23T15:37:19.966Z,0.75
2023-02-23T15:39:53.278Z,1.00
2023-02-23T15:42:25.669Z,0.65
2023-02-23T15:44:58.478Z,1.10
2023-02-23T15:47:28.646Z,1.00
2023-02-23T15:50:02.831Z,0.90
2023-02-23T15:52:33.120Z,0.88
2023-02-23T15:55:06.389Z,0.70
2023-02-23T15:57:47.127Z,0.75
2023-02-23T16:00:19.832Z,0.60
2023-02-23T16:02:49.886Z,0.90
2023-02-23T16:05:22.064Z,0.60
2023-02-23T16:07:50.695Z,0.47
2023-02-23T16:10:23.677Z,0.50
2023-02-23T16:12:54.487Z,1.00
2023-02-23T16:15:25.814Z,0.68
2023-02-23T16:17:58.018Z,1.05
2023-02-23T16:20:30.837Z,0.77
2023-02-23T16:22:59.439Z,0.50
2023-02-23T16:25:29.243Z,0.40
2023-02-23T16:28:02.592Z,1.27
2023-02-23T16:30:40.535Z,0.73
2023-02-23T16:33:12.681Z,0.55
2023-02-23T16:35:46.380Z,0.50
2023-02-23T16:38:15.528Z,0.38
2023-02-23T16:40:45.056Z,0.85
2023-02-23T16:43:14.881Z,0.57
2023-02-23T16:45:44.009Z,0.80
2023-02-23T16:48:14.627Z,0.60
2023-02-23T16:50:43.027Z,0.70
2023-02-23T16:53:12.409Z,0.68
2023-02-23T16:55:42.043Z,0.30
2023-02-23T16:58:12.033Z,1.15
2023-02-23T17:00:41.866Z,0.60
2023-02-23T17:03:15.146Z,0.60
2023-02-23T17:05:43.584Z,0.57
2023-02-23T17:08:12.040Z,0.43
2023-02-23T17:10:41.255Z,0.50
2023-02-23T17:13:11.071Z,0.65
2023-02-23T17:15:40.331Z,0.73
2023-02-23T17:18:10.011Z,0.32
2023-02-23T17:20:38.347Z,0.47
2023-02-23T17:23:06.665Z,0.75
2023-02-23T17:25:34.964Z,0.75
2023-02-23T17:28:03.573Z,0.30
2023-02-23T17:30:32.516Z,0.43
2023-02-23T17:33:01.168Z,1.05
2023-02-23T17:35:33.334Z,0.80
2023-02-23T17:38:02.224Z,0.60
2023-02-23T17:40:31.131Z,0.32
2023-02-23T17:43:00.458Z,0.90
2023-02-23T17:45:29.305Z,0.50
2023-02-23T17:47:58.492Z,0.55
2023-02-23T17:50:28.031Z,0.50
2023-02-23T17:52:57.867Z,0.45
2023-02-23T17:55:26.867Z,0.80
2023-02-23T17:57:55.200Z,0.60
2023-02-23T18:00:25.014Z,0.98
2023-02-23T18:02:53.446Z,0.45
2023-02-23T18:05:22.126Z,1.27
2023-02-23T18:07:50.532Z,0.93
2023-02-23T18:10:25.270Z,0.60
2023-02-23T18:12:53.554Z,0.93
2023-02-23T18:15:22.421Z,0.75
2023-02-23T18:17:54.477Z,0.68
2023-02-23T18:20:23.068Z,0.98
2023-02-23T18:22:51.444Z,0.70
2023-02-23T18:25:25.114Z,0.70
2023-02-23T18:27:54.465Z,0.75
2023-02-23T18:30:24.679Z,0.77
2023-02-23T18:32:53.313Z,0.50
2023-02-23T18:35:21.702Z,1.60
2023-02-23T18:37:50.092Z,1.27
2023-02-23T18:40:23.884Z,1.23
2023-02-23T18:42:53.662Z,0.73
2023-02-23T18:45:21.930Z,1.10
2023-02-23T18:47:51.422Z,1.63
2023-02-23T18:50:20.114Z,1.20
2023-02-23T18:52:50.740Z,1.80
2023-02-23T18:55:19.726Z,0.82
2023-02-23T18:57:48.254Z,1.17
2023-02-23T19:00:19.010Z,0.70
2023-02-23T19:02:47.474Z,0.70
2023-02-23T19:05:16.300Z,0.82
2023-02-23T19:07:44.793Z,1.05
2023-02-23T19:10:14.640Z,0.70
2023-02-23T19:12:43.159Z,1.02
2023-02-23T19:15:12.367Z,0.80
2023-02-23T19:17:42.154Z,0.70
2023-02-23T19:20:14.142Z,1.02
2023-02-23T19:22:42.903Z,0.68
2023-02-23T19:25:15.393Z,0.57
2023-02-23T19:27:44.291Z,1.10
2023-02-23T19:30:14.297Z,0.60
2023-02-23T19:32:44.966Z,0.55
2023-02-23T19:35:15.857Z,1.50
2023-02-23T19:37:51.355Z,1.08
2023-02-23T19:40:22.846Z,0.93
2023-02-23T19:42:52.802Z,1.02
2023-02-23T19:45:21.896Z,0.85
2023-02-23T19:47:52.955Z,0.85
2023-02-23T19:50:21.982Z,0.68
2023-02-23T19:52:50.853Z,1.08
2023-02-23T19:55:20.524Z,0.80
2023-02-23T19:57:49.015Z,1.42
2023-02-23T20:00:17.722Z,0.73
2023-02-23T20:02:47.625Z,0.80
2023-02-23T20:05:17.955Z,1.30
2023-02-23T20:07:46.416Z,0.95
2023-02-23T20:10:16.837Z,0.88
2023-02-23T20:12:45.548Z,1.00
2023-02-23T20:15:15.348Z,0.95
2023-02-23T20:17:43.960Z,1.52
2023-02-23T20:20:13.278Z,0.98
2023-02-23T20:22:44.655Z,0.52
2023-02-23T20:25:15.596Z,1.00
2023-02-23T20:27:44.687Z,0.95
2023-02-23T20:30:13.877Z,0.82
2023-02-23T20:32:42.345Z,0.60
2023-02-23T20:35:12.511Z,0.85
2023-02-23T20:37:40.775Z,0.77
2023-02-23T20:40:17.015Z,1.00
2023-02-23T20:42:45.990Z,0.80
2023-02-23T20:45:14.700Z,1.83
2023-02-23T20:47:43.260Z,1.05
2023-02-23T20:50:12.876Z,0.82
2023-02-23T20:52:41.871Z,0.95
2023-02-23T20:55:11.743Z,0.85
2023-02-23T20:57:40.229Z,1.17
2023-02-23T21:00:10.679Z,1.15
2023-02-23T21:02:40.862Z,1.33
2023-02-23T21:05:12.292Z,0.77
2023-02-23T21:07:40.787Z,0.73
2023-02-23T21:10:10.640Z,1.30
2023-02-23T21:12:40.329Z,1.63
2023-02-23T21:15:09.293Z,1.25
2023-02-23T21:17:38.505Z,1.00
2023-02-23T21:20:10.093Z,1.02
2023-02-23T21:22:38.643Z,0.80
2023-02-23T21:25:08.347Z,0.77
2023-02-23T21:27:36.844Z,1.13
2023-02-23T21:30:09.191Z,1.08
2023-02-23T21:32:42.130Z,1.27
2023-02-23T21:35:11.436Z,1.25
2023-02-23T21:37:40.014Z,1.10
2023-02-23T21:40:10.127Z,1.27
2023-02-23T21:42:38.743Z,1.40
2023-02-23T21:45:09.457Z,1.80
2023-02-23T21:47:37.829Z,2.00
2023-02-23T21:50:06.440Z,1.77
2023-02-23T21:52:34.914Z,1.10
2023-02-23T21:55:08.020Z,1.23
2023-02-23T21:57:38.838Z,1.50
2023-02-23T22:00:09.286Z,1.70
2023-02-23T22:02:38.322Z,1.75
2023-02-23T22:05:06.999Z,1.30
2023-02-23T22:07:35.589Z,1.35
2023-02-23T22:10:04.367Z,2.20
2023-02-23T22:12:33.505Z,1.73
2023-02-23T22:15:06.259Z,1.50
2023-02-23T22:17:36.090Z,1.35
2023-02-23T22:20:07.411Z,1.38
2023-02-23T22:22:36.346Z,2.10
2023-02-23T22:25:05.135Z,1.20
2023-02-23T22:27:33.421Z,1.85
2023-02-23T22:30:01.847Z,1.40
2023-02-23T22:32:32.646Z,2.42
2023-02-23T22:35:03.143Z,1.88
2023-02-23T22:37:31.910Z,1.85
2023-02-23T22:40:00.568Z,1.60
2023-02-23T22:42:29.765Z,1.88
2023-02-23T22:44:58.093Z,1.42
2023-02-23T22:47:26.429Z,1.98
2023-02-23T22:49:54.820Z,2.42
2023-02-23T22:52:24.435Z,1.25
2023-02-23T22:54:53.347Z,1.63
2023-02-23T22:57:21.579Z,1.55
2023-02-23T23:00:00.030Z,1.60
2023-02-23T23:02:31.994Z,1.50
2023-02-23T23:05:01.826Z,1.30
2023-02-23T23:07:32.343Z,2.53
2023-02-23T23:10:03.698Z,1.00
2023-02-23T23:12:34.178Z,1.55
2023-02-23T23:15:02.736Z,1.33
2023-02-23T23:17:31.643Z,1.70
2023-02-23T23:20:00.794Z,1.00
2023-02-23T23:22:29.240Z,1.83
2023-02-23T23:24:58.818Z,1.95
2023-02-23T23:27:27.079Z,1.48
2023-02-23T23:29:56.352Z,1.20
2023-02-23T23:32:27.525Z,2.38
2023-02-23T23:34:57.339Z,1.65
2023-02-23T23:37:28.970Z,2.30
2023-02-23T23:40:00.178Z,2.17
2023-02-23T23:42:28.505Z,1.75
2023-02-23T23:44:57.432Z,2.15
2023-02-23T23:47:26.835Z,1.70
2023-02-23T23:49:55.588Z,2.17
2023-02-23T23:52:25.184Z,1.92
2023-02-23T23:54:53.446Z,2.05
2023-02-23T23:57:23.030Z,2.10
2023-02-23T23:59:51.326Z,1.92
